Time;durP1;ratioP1;P1;durP2;ratioP2;P2;SDS_P1;SDS_P2;PMS_P1;PMS_P2;Temp;Humidity;BMP_temperature;BMP_pressure;BME280_temperature;BME280_humidity;BME280_pressure;Samples;Min_cycle;Max_cycle;Signal;HPM_P1;HPM_P2
2023/12/10 00:03:55;;;;;;;5.95;1.70;;;;;;;9.06;100.00;98472.00;12208863;19;20453;-84
2023/12/10 00:07:58;;;;;;;7.20;1.50;;;;;;;9.13;100.00;98478.06;12184266;19;20014;-84
2023/12/10 00:12:00;;;;;;;10.98;2.10;;;;;;;9.06;100.00;98485.75;12208469;19;20033;-84
2023/12/10 00:16:03;;;;;;;23.75;2.80;;;;;;;8.93;100.00;98489.03;12203448;19;20037;-83
2023/12/10 00:20:06;;;;;;;11.00;2.33;;;;;;;8.91;100.00;98504.94;12184025;19;20014;-83
2023/12/10 00:24:09;;;;;;;17.00;2.00;;;;;;;8.96;100.00;98504.97;12205481;19;20404;-83
2023/12/10 00:28:11;;;;;;;10.93;2.70;;;;;;;8.92;100.00;98503.84;12204765;19;19999;-84
2023/12/10 00:32:14;;;;;;;20.77;2.90;;;;;;;8.90;100.00;98495.06;12183875;19;20049;-84
2023/12/10 00:36:18;;;;;;;15.10;2.78;;;;;;;8.82;100.00;98499.16;12204507;19;20590;-83
2023/12/10 00:40:21;;;;;;;18.00;3.03;;;;;;;8.81;100.00;98513.19;12203949;19;20022;-84
2023/12/10 00:44:23;;;;;;;13.70;2.60;;;;;;;8.90;100.00;98512.38;12181914;19;20362;-83
2023/12/10 00:48:26;;;;;;;17.52;2.90;;;;;;;8.87;100.00;98534.88;12203018;19;20017;-83
2023/12/10 00:52:30;;;;;;;15.90;4.53;;;;;;;8.93;100.00;98545.91;12204720;19;20480;-83
2023/12/10 00:56:33;;;;;;;18.02;3.50;;;;;;;8.97;100.00;98555.25;12178878;19;20010;-84
2023/12/10 01:00:35;;;;;;;;;;;;;;;8.97;100.00;98564.31;12203058;19;20023;-84
2023/12/10 01:04:41;;;;;;;21.63;3.33;;;;;;;9.05;100.00;98569.28;12202857;19;20694;-85
2023/12/10 01:08:43;;;;;;;18.23;4.68;;;;;;;9.05;100.00;98577.53;12178700;19;20073;-85
2023/12/10 01:12:45;;;;;;;14.35;2.63;;;;;;;9.06;100.00;98590.16;12202245;19;20006;-85
2023/12/10 01:16:48;;;;;;;23.17;5.07;;;;;;;9.14;100.00;98605.31;12196447;19;20010;-84
2023/12/10 01:20:54;;;;;;;27.27;3.72;;;;;;;9.20;100.00;98612.47;12181404;19;20041;-84
2023/12/10 01:24:57;;;;;;;19.38;2.92;;;;;;;9.22;100.00;98621.28;12197125;19;20010;-83
2023/12/10 01:28:59;;;;;;;19.83;3.20;;;;;;;9.21;100.00;98636.09;12181213;19;20006;-84
2023/12/10 01:33:04;;;;;;;23.75;3.92;;;;;;;9.21;100.00;98649.03;12200428;19;20010;-82
2023/12/10 01:37:07;;;;;;;20.43;3.77;;;;;;;9.27;100.00;98664.44;12200207;19;20015;-83
2023/12/10 01:41:08;;;;;;;19.27;3.15;;;;;;;9.28;100.00;98666.09;12181189;19;20770;-84
2023/12/10 01:45:14;;;;;;;15.05;3.35;;;;;;;9.30;100.00;98677.66;12197375;19;20065;-83
2023/12/10 01:49:17;;;;;;;22.90;2.92;;;;;;;9.29;100.00;98684.25;12199978;19;20038;-83
2023/12/10 01:53:19;;;;;;;15.23;3.30;;;;;;;9.33;100.00;98685.34;12177660;19;20011;-84
2023/12/10 01:57:21;;;;;;;23.02;3.60;;;;;;;9.30;100.00;98685.91;12198454;19;20007;-84
2023/12/10 02:01:25;;;;;;;19.27;3.63;;;;;;;9.22;100.00;98680.91;12233154;19;20018;-85
2023/12/10 02:05:28;;;;;;;16.92;3.08;;;;;;;9.12;100.00;98679.78;12205044;19;20006;-86
2023/12/10 02:09:30;;;;;;;16.50;3.80;;;;;;;9.09;100.00;98699.53;12205885;19;20066;-85
2023/12/10 02:13:33;;;;;;;;;;;;;;;9.09;100.00;98702.28;12201139;19;20427;-86
2023/12/10 02:17:35;;;;;;;15.57;3.40;;;;;;;9.09;100.00;98721.53;12178691;19;19915;-84
2023/12/10 02:21:37;;;;;;;17.35;2.88;;;;;;;9.15;100.00;98721.56;12201936;19;20323;-86
2023/12/10 02:25:39;;;;;;;27.08;5.18;;;;;;;9.27;100.00;98719.41;12203518;19;20015;-84
2023/12/10 02:29:43;;;;;;;22.83;3.88;;;;;;;9.28;100.00;98723.81;12180104;19;20555;-84
2023/12/10 02:33:46;;;;;;;22.77;5.10;;;;;;;9.32;100.00;98738.69;12198548;19;20093;-84
2023/12/10 02:37:48;;;;;;;22.83;4.03;;;;;;;9.32;100.00;98736.78;12195743;19;20011;-84
2023/12/10 02:41:50;;;;;;;20.17;3.80;;;;;;;9.35;100.00;98747.22;12171735;19;20017;-85
2023/12/10 02:45:53;;;;;;;19.63;3.47;;;;;;;9.18;100.00;98757.59;12196842;19;20007;-84
2023/12/10 02:49:55;;;;;;;24.10;4.83;;;;;;;9.05;100.00;98764.38;12179872;19;20015;-84
2023/12/10 02:53:58;;;;;;;21.52;3.85;;;;;;;8.89;100.00;98770.84;12246801;19;19998;-82
2023/12/10 02:58:00;;;;;;;13.88;3.08;;;;;;;8.76;100.00;98768.59;12210856;19;20017;-84
2023/12/10 03:02:06;;;;;;;17.13;3.33;;;;;;;8.61;100.00;98770.13;12183119;19;20033;-85
2023/12/10 03:06:07;;;;;;;16.52;2.88;;;;;;;8.53;100.00;98789.81;12202678;19;20015;-85
2023/12/10 03:10:10;;;;;;;24.23;3.88;;;;;;;8.47;100.00;98807.34;12228206;19;20003;-85
2023/12/10 03:14:11;;;;;;;15.18;2.10;;;;;;;8.39;100.00;98808.66;12230313;19;20034;-84
2023/12/10 03:18:15;;;;;;;17.05;2.30;;;;;;;8.36;100.00;98800.91;12254116;19;20018;-84
2023/12/10 03:22:20;;;;;;;10.07;2.13;;;;;;;8.38;100.00;98817.94;12220726;19;20018;-85
2023/12/10 03:26:25;;;;;;;9.15;2.10;;;;;;;8.32;100.00;98818.13;12189849;19;20351;-84
2023/12/10 03:30:31;;;;;;;15.93;2.88;;;;;;;8.29;100.00;98824.97;12210892;19;20498;-84
2023/12/10 03:34:33;;;;;;;12.37;1.37;;;;;;;8.25;100.00;98848.53;12213954;19;20014;-85
2023/12/10 03:38:35;;;;;;;;;;;;;;;8.29;100.00;98857.09;12189226;19;20013;-84
2023/12/10 03:42:37;;;;;;;7.50;1.70;;;;;;;8.29;100.00;98857.09;12211192;19;20291;-86
2023/12/10 03:46:41;;;;;;;12.02;2.08;;;;;;;8.34;100.00;98848.91;12204028;19;20109;-83
2023/12/10 03:50:43;;;;;;;9.45;1.98;;;;;;;8.38;100.00;98856.38;12189432;19;20027;-85
2023/12/10 03:54:45;;;;;;;7.65;1.38;;;;;;;8.42;100.00;98863.03;12210262;19;20343;-85
2023/12/10 03:58:47;;;;;;;9.47;1.50;;;;;;;8.43;100.00;98859.19;12208651;19;20379;-84
2023/12/10 04:02:50;;;;;;;8.23;1.40;;;;;;;8.49;100.00;98871.06;12189160;19;20074;-84
2023/12/10 04:06:52;;;;;;;9.55;2.47;;;;;;;8.48;100.00;98866.66;12208984;19;20046;-83
2023/12/10 04:10:54;;;;;;;6.32;1.83;;;;;;;8.44;100.00;98871.00;12189718;19;20007;-84
2023/12/10 04:14:57;;;;;;;10.95;2.05;;;;;;;8.48;100.00;98880.38;12207901;19;20549;-84
2023/12/10 04:19:03;;;;;;;7.03;1.50;;;;;;;8.48;100.00;98877.66;12203804;19;20015;-84
2023/12/10 04:23:05;;;;;;;7.15;1.60;;;;;;;8.54;100.00;98887.59;12186122;19;20006;-84
2023/12/10 04:27:10;;;;;;;9.52;1.60;;;;;;;8.58;100.00;98894.22;12207004;19;20385;-83
2023/12/10 04:31:12;;;;;;;12.10;1.85;;;;;;;8.56;100.00;98893.63;12211989;19;20737;-83
2023/12/10 04:35:14;;;;;;;10.83;1.40;;;;;;;8.59;100.00;98898.59;12187212;19;20011;-85
2023/12/10 04:39:19;;;;;;;10.70;1.83;;;;;;;8.61;100.00;98917.59;12206777;19;20018;-84
2023/12/10 04:43:21;;;;;;;7.45;1.20;;;;;;;8.59;100.00;98923.31;12208695;19;20010;-85
2023/12/10 04:47:23;;;;;;;9.85;2.03;;;;;;;8.58;100.00;98921.66;12187340;19;20010;-85
2023/12/10 04:51:26;;;;;;;6.47;1.40;;;;;;;8.61;100.00;98925.81;12208596;19;20122;-84
2023/12/10 04:55:28;;;;;;;6.65;1.45;;;;;;;8.65;100.00;98921.47;12203242;19;20027;-84
2023/12/10 04:59:30;;;;;;;10.23;1.80;;;;;;;8.64;100.00;98941.78;12184585;19;20033;-85
2023/12/10 05:03:33;;;;;;;12.05;1.90;;;;;;;8.60;100.00;98930.50;12206699;19;20025;-84
2023/12/10 05:07:36;;;;;;;12.75;1.80;;;;;;;8.61;100.00;98940.38;12207201;19;20003;-85
2023/12/10 05:11:40;;;;;;;9.90;2.45;;;;;;;8.62;100.00;98944.78;12182923;19;20007;-83
2023/12/10 05:15:42;;;;;;;6.82;1.13;;;;;;;8.55;100.00;98952.38;12206953;19;20025;-83
2023/12/10 05:19:45;;;;;;;16.27;2.53;;;;;;;8.47;100.00;98955.59;12206411;19;20022;-82
2023/12/10 05:23:48;;;;;;;14.57;2.25;;;;;;;8.35;100.00;98947.47;12181567;19;20007;-83
2023/12/10 05:27:50;;;;;;;14.18;2.22;;;;;;;8.31;100.00;98945.50;12204049;19;20086;-83
2023/12/10 05:31:52;;;;;;;9.63;2.50;;;;;;;8.32;100.00;98960.88;12195009;19;20010;-83
2023/12/10 05:35:55;;;;;;;8.23;2.15;;;;;;;8.29;100.00;98961.38;12206042;19;20014;-83
2023/12/10 05:39:57;;;;;;;16.80;3.92;;;;;;;8.31;100.00;98967.47;12202284;19;20033;-82
2023/12/10 05:44:02;;;;;;;18.08;3.97;;;;;;;8.43;100.00;98981.91;12182149;19;20014;-83
2023/12/10 05:48:04;;;;;;;14.55;2.78;;;;;;;8.50;100.00;98978.97;12202579;19;20523;-84
2023/12/10 05:52:06;;;;;;;21.88;3.00;;;;;;;8.61;100.00;98987.06;12203127;19;20026;-84
2023/12/10 05:56:10;;;;;;;15.60;2.92;;;;;;;8.73;100.00;98988.84;12178150;19;20022;-84
2023/12/10 06:00:13;;;;;;;12.90;2.60;;;;;;;8.71;100.00;98993.75;12203008;19;20010;-83
2023/12/10 06:04:15;;;;;;;15.63;2.45;;;;;;;8.81;100.00;98991.13;12203547;19;20011;-84
2023/12/10 06:08:18;;;;;;;17.83;3.20;;;;;;;8.85;100.00;98998.59;12183952;19;20011;-85
2023/12/10 06:12:19;;;;;;;15.00;2.67;;;;;;;8.91;100.00;99002.22;12236156;19;20025;-85
2023/12/10 06:16:22;;;;;;;18.48;3.80;;;;;;;8.92;100.00;99009.38;12215778;19;20263;-86
2023/12/10 06:20:25;;;;;;;10.60;1.88;;;;;;;8.98;100.00;99022.06;12188799;19;20018;-86
2023/12/10 06:24:28;;;;;;;18.65;2.88;;;;;;;9.04;100.00;99021.06;12204789;19;20756;-86
2023/12/10 06:28:30;;;;;;;15.10;2.80;;;;;;;9.11;100.00;99024.41;12202016;19;20003;-85
2023/12/10 06:32:32;;;;;;;7.88;1.98;;;;;;;9.19;100.00;99031.38;12179533;19;20006;-86
2023/12/10 06:36:35;;;;;;;12.48;2.47;;;;;;;9.21;100.00;99025.59;12200865;19;20516;-86
2023/12/10 06:40:40;;;;;;;17.98;3.35;;;;;;;9.23;100.00;99018.75;12203708;19;20017;-85
2023/12/10 06:44:43;;;;;;;17.77;3.33;;;;;;;9.21;100.00;99028.34;12178747;19;20018;-86
2023/12/10 06:48:46;;;;;;;19.52;2.63;;;;;;;9.30;100.00;99049.59;12207440;19;20021;-85
2023/12/10 06:52:49;;;;;;;12.05;2.22;;;;;;;9.32;100.00;99052.94;12220708;19;20580;-87
2023/12/10 06:56:51;;;;;;;15.17;2.70;;;;;;;9.44;100.00;99055.53;12193842;19;20010;-86
2023/12/10 07:00:56;;;;;;;16.10;2.90;;;;;;;9.39;100.00;99062.88;12211712;19;20276;-85
2023/12/10 07:05:06;;;;;;;7.13;2.30;;;;;;;9.42;100.00;99076.13;12193565;19;20600;-85
2023/12/10 07:09:08;;;;;;;15.02;3.15;;;;;;;9.35;100.00;99081.84;12211420;19;20010;-84
2023/12/10 07:13:10;;;;;;;15.60;2.65;;;;;;;9.34;100.00;99082.94;12210705;19;20782;-85
2023/12/10 07:17:12;;;;;;;9.87;2.40;;;;;;;9.34;100.00;99097.50;12188326;19;20031;-85
2023/12/10 07:21:14;;;;;;;10.70;1.83;;;;;;;9.39;100.00;99104.13;12206207;19;20010;-85
2023/12/10 07:25:18;;;;;;;11.18;2.50;;;;;;;9.32;100.00;99113.41;12213174;19;20006;-85
2023/12/10 07:29:26;;;;;;;14.95;2.38;;;;;;;9.33;100.00;99114.25;12192635;19;20364;-81
2023/12/10 07:33:27;;;;;;;15.05;2.40;;;;;;;9.45;100.00;99116.84;12217838;19;20014;-83
2023/12/10 07:37:32;;;;;;;14.65;2.53;;;;;;;9.50;100.00;99131.47;12213406;19;20473;-86
2023/12/10 07:41:34;;;;;;;16.70;3.67;;;;;;;9.49;100.00;99146.34;12192079;19;20007;-87
2023/12/10 07:45:38;;;;;;;10.15;1.85;;;;;;;9.59;99.21;99151.91;12211882;19;20017;-85
2023/12/10 07:49:40;;;;;;;18.73;3.70;;;;;;;9.60;99.30;99158.25;12211475;19;20010;-86
2023/12/10 07:53:43;;;;;;;12.35;2.63;;;;;;;9.58;99.62;99149.44;12192206;19;20034;-86
2023/12/10 07:57:46;;;;;;;11.03;2.63;;;;;;;9.60;98.48;99161.00;12212651;19;20094;-86
2023/12/10 08:01:47;;;;;;;14.73;3.13;;;;;;;9.64;99.03;99164.06;12205276;19;20034;-85
2023/12/10 08:05:57;;;;;;;6.43;1.90;;;;;;;9.66;97.50;99156.38;12186971;19;20031;-87
2023/12/10 08:10:01;;;;;;;14.52;2.55;;;;;;;9.65;96.88;99149.22;12209448;19;20044;-85
2023/12/10 08:14:04;;;;;;;18.70;2.87;;;;;;;9.77;97.43;99158.97;12202204;19;20015;-87
2023/12/10 08:18:06;;;;;;;15.13;2.50;;;;;;;9.73;96.35;99157.03;12209622;19;20010;-86
2023/12/10 08:22:08;;;;;;;10.32;1.88;;;;;;;9.79;96.73;99156.81;12210583;19;20026;-86
2023/12/10 08:26:11;;;;;;;19.25;2.55;;;;;;;9.73;96.26;99176.28;12184939;19;20786;-85
2023/12/10 08:30:13;;;;;;;12.98;2.05;;;;;;;9.75;96.78;99171.34;12204860;19;20029;-86
2023/12/10 08:34:15;;;;;;;12.85;2.00;;;;;;;9.68;97.86;99165.22;12209618;19;20056;-86
2023/12/10 08:38:20;;;;;;;13.35;2.38;;;;;;;9.69;97.49;99172.38;12183660;19;20007;-86
2023/12/10 08:42:25;;;;;;;10.43;1.95;;;;;;;9.67;97.58;99174.56;12205491;19;20064;-86
2023/12/10 08:46:28;;;;;;;16.30;3.13;;;;;;;9.70;98.57;99182.31;12201408;19;20021;-84
2023/12/10 08:50:31;;;;;;;19.77;2.78;;;;;;;9.66;97.19;99189.41;12182002;19;20045;-84
2023/12/10 08:54:33;;;;;;;12.10;2.53;;;;;;;9.66;97.26;99195.72;12171922;19;20018;-83
2023/12/10 08:58:35;;;;;;;12.13;2.30;;;;;;;9.65;97.73;99198.75;12220506;19;20260;-84
2023/12/10 09:02:37;;;;;;;15.80;2.67;;;;;;;9.57;98.35;99209.09;12195003;19;20033;-85
2023/12/10 09:06:40;;;;;;;11.23;2.05;;;;;;;9.53;98.43;99213.47;12216585;19;20756;-84
2023/12/10 09:10:43;;;;;;;13.35;2.42;;;;;;;9.61;98.66;99222.34;12222877;19;20022;-84
2023/12/10 09:14:45;;;;;;;13.27;2.47;;;;;;;9.65;98.26;99232.59;12197156;19;20014;-84
2023/12/10 09:18:47;;;;;;;12.73;2.97;;;;;;;9.64;97.78;99241.09;12219479;19;20014;-84
2023/12/10 09:22:49;;;;;;;13.98;3.00;;;;;;;9.78;97.16;99254.19;12215585;19;20047;-83
2023/12/10 09:26:51;;;;;;;8.05;1.80;;;;;;;9.93;95.85;99253.50;12193089;19;20006;-85
2023/12/10 09:30:54;;;;;;;12.35;2.85;;;;;;;10.07;94.91;99251.19;12234079;19;20025;-81
2023/12/10 09:34:56;;;;;;;12.03;2.73;;;;;;;10.10;94.60;99255.34;12230383;19;20014;-83
2023/12/10 09:38:59;;;;;;;10.15;2.58;;;;;;;10.19;94.74;99268.38;12191617;19;20018;-84
2023/12/10 09:43:01;;;;;;;;;;;;;;;10.32;94.06;99269.06;12215844;19;20003;-83
2023/12/10 09:47:08;;;;;;;12.95;2.10;;;;;;;10.44;92.59;99270.56;12201140;19;19923;-84
2023/12/10 09:51:11;;;;;;;8.70;1.80;;;;;;;10.64;91.03;99269.06;12219675;19;20010;-83
2023/12/10 09:55:16;;;;;;;12.77;2.38;;;;;;;10.71;89.08;99272.44;12218868;19;20018;-84
2023/12/10 09:59:21;;;;;;;15.15;2.15;;;;;;;10.88;89.29;99275.84;12193982;19;20466;-84
2023/12/10 10:03:23;;;;;;;10.47;2.17;;;;;;;10.81;88.89;99257.91;12220917;19;20006;-83
2023/12/10 10:07:29;;;;;;;18.27;2.70;;;;;;;10.72;89.11;99255.63;12239899;19;20003;-83
2023/12/10 10:11:32;;;;;;;15.32;2.60;;;;;;;10.75;89.71;99257.03;12222041;19;20399;-82
2023/12/10 10:15:34;;;;;;;10.37;2.23;;;;;;;10.88;88.93;99267.59;12231811;19;20014;-83
2023/12/10 10:19:36;;;;;;;11.20;2.17;;;;;;;11.06;87.82;99263.56;12214477;19;20015;-84
2023/12/10 10:23:38;;;;;;;8.37;2.03;;;;;;;11.21;86.61;99260.06;12195514;19;20017;-84
2023/12/10 10:27:47;;;;;;;10.20;2.03;;;;;;;11.23;87.19;99257.06;12220543;19;20372;-85
2023/12/10 10:31:50;;;;;;;9.10;2.33;;;;;;;11.18;87.99;99255.09;12232069;19;20374;-84
2023/12/10 10:35:52;;;;;;;13.98;2.33;;;;;;;11.08;89.22;99255.88;12204614;19;20025;-84
2023/12/10 10:39:55;;;;;;;15.43;2.90;;;;;;;11.10;90.08;99252.88;12223498;19;20011;-83
2023/12/10 10:43:58;;;;;;;;;;;;;;;11.03;90.64;99263.28;12214429;19;20027;-82
2023/12/10 10:48:02;;;;;;;6.72;1.73;;;;;;;11.11;90.60;99262.78;12188933;19;19911;-81
2023/12/10 10:52:10;;;;;;;10.13;2.17;;;;;;;11.33;89.54;99259.84;12217603;19;20015;-82
2023/12/10 10:56:13;;;;;;;10.80;2.35;;;;;;;11.44;89.34;99266.25;12189379;19;20010;-84
2023/12/10 11:00:18;;;;;;;14.77;2.75;;;;;;;11.55;88.41;99267.97;12214195;19;20059;-84
2023/12/10 11:04:21;;;;;;;14.48;2.20;;;;;;;11.63;88.20;99275.75;12206196;19;20018;-83
2023/12/10 11:08:26;;;;;;;12.82;3.30;;;;;;;11.74;87.91;99271.91;12186075;19;20026;-83
2023/12/10 11:12:42;;;;;;;10.45;2.00;;;;;;;11.77;87.04;99268.59;12226319;19;20009;-84
2023/12/10 11:17:09;;;;;;;19.33;2.83;;;;;;;11.94;85.88;99273.09;12222761;19;20019;-83
2023/12/10 11:21:10;;;;;;;8.82;2.22;;;;;;;11.84;85.40;99280.22;12204628;19;20453;-84
2023/12/10 11:25:14;;;;;;;13.57;2.83;;;;;;;11.62;86.55;99271.31;12220697;19;20010;-83
2023/12/10 11:29:17;;;;;;;10.35;2.33;;;;;;;11.34;88.77;99278.91;12195136;19;20031;-83
2023/12/10 11:33:19;;;;;;;8.73;2.58;;;;;;;11.21;89.44;99284.88;12220977;19;20058;-84
2023/12/10 11:37:22;;;;;;;13.68;2.42;;;;;;;11.26;89.93;99293.19;12219641;19;20082;-84
2023/12/10 11:41:25;;;;;;;17.27;2.75;;;;;;;11.26;89.36;99287.69;12193754;19;20537;-83
2023/12/10 11:45:27;;;;;;;10.23;2.13;;;;;;;11.29;89.06;99278.06;12218115;19;20378;-84
2023/12/10 11:49:31;;;;;;;18.27;2.83;;;;;;;11.17;90.07;99275.50;12219332;19;20818;-83
2023/12/10 11:53:33;;;;;;;15.13;3.53;;;;;;;11.05;91.06;99272.13;12189576;19;20004;-85
2023/12/10 11:57:41;;;;;;;14.18;2.47;;;;;;;10.89;91.71;99274.78;12212991;19;20010;-85
2023/12/10 12:01:48;;;;;;;12.18;2.30;;;;;;;10.86;92.55;99280.81;12213762;19;20118;-86
2023/12/10 12:05:51;;;;;;;15.05;2.80;;;;;;;11.02;91.28;99280.94;12187512;19;20019;-85
2023/12/10 12:09:54;;;;;;;17.33;2.50;;;;;;;11.25;90.53;99261.22;12214846;19;20014;-83
2023/12/10 12:13:56;;;;;;;17.45;3.22;;;;;;;11.38;89.33;99266.22;12213582;19;20018;-83
2023/12/10 12:18:03;;;;;;;8.27;2.38;;;;;;;11.30;89.16;99258.50;12192692;19;20090;-84
2023/12/10 12:22:04;;;;;;;12.15;2.38;;;;;;;11.36;89.30;99257.41;12212490;19;20011;-84
2023/12/10 12:26:06;;;;;;;13.10;2.70;;;;;;;11.48;88.87;99256.34;12208429;19;20006;-85
2023/12/10 12:30:10;;;;;;;13.15;2.72;;;;;;;11.47;88.52;99262.97;12182281;19;20015;-83
2023/12/10 12:34:13;;;;;;;10.68;2.38;;;;;;;11.46;88.96;99244.75;12204488;19;20032;-84
2023/12/10 12:38:15;;;;;;;7.95;1.77;;;;;;;11.52;88.48;99243.69;12179268;19;20014;-83
2023/12/10 12:42:17;;;;;;;11.50;2.22;;;;;;;11.51;88.52;99247.53;12208477;19;20021;-83
2023/12/10 12:46:19;;;;;;;12.02;2.20;;;;;;;11.52;89.47;99227.13;12209460;19;20011;-84
2023/12/10 12:50:24;;;;;;;17.55;2.67;;;;;;;11.49;89.55;99233.19;12188965;19;20034;-82
2023/12/10 12:54:29;;;;;;;12.98;2.38;;;;;;;11.52;89.71;99239.00;12232085;19;20017;-85
2023/12/10 12:58:33;;;;;;;17.55;3.17;;;;;;;11.46;90.14;99244.75;12224125;19;20473;-84
2023/12/10 13:02:36;;;;;;;7.72;2.58;;;;;;;11.45;90.65;99240.31;12191632;19;20011;-84
2023/12/10 13:06:38;;;;;;;16.58;3.10;;;;;;;11.42;91.17;99255.47;12216594;19;20014;-83
2023/12/10 13:10:41;;;;;;;21.00;3.87;;;;;;;11.43;91.46;99246.13;12216099;19;20034;-83
2023/12/10 13:14:43;;;;;;;15.40;2.43;;;;;;;11.31;93.17;99260.13;12192171;19;20445;-86
2023/12/10 13:18:46;;;;;;;19.67;3.67;;;;;;;11.28;93.97;99265.38;12208881;19;20006;-84
2023/12/10 13:22:48;;;;;;;19.90;3.20;;;;;;;11.17;94.83;99256.19;12209429;19;20074;-84
2023/12/10 13:26:52;;;;;;;26.13;3.63;;;;;;;11.10;95.95;99259.19;12184579;19;20400;-84
2023/12/10 13:30:58;;;;;;;15.25;3.03;;;;;;;11.09;96.52;99259.44;12203965;19;20010;-84
2023/12/10 13:35:02;;;;;;;13.30;2.83;;;;;;;11.06;96.95;99247.03;12207072;19;20085;-86
2023/12/10 13:39:04;;;;;;;12.30;3.22;;;;;;;10.92;98.48;99235.66;12181209;19;20386;-84
2023/12/10 13:43:06;;;;;;;16.55;1.92;;;;;;;10.77;100.00;99235.56;12203881;19;20766;-83
2023/12/10 13:47:12;;;;;;;10.45;2.33;;;;;;;10.69;100.00;99247.06;12200728;19;20011;-85
2023/12/10 13:51:13;;;;;;;17.88;2.25;;;;;;;10.63;100.00;99248.97;12182257;19;20010;-85
2023/12/10 13:55:16;;;;;;;16.03;2.77;;;;;;;10.63;100.00;99246.19;12204098;19;20027;-85
2023/12/10 13:59:18;;;;;;;12.05;2.55;;;;;;;10.60;100.00;99237.63;12182040;19;20010;-86
2023/12/10 14:03:20;;;;;;;18.35;3.33;;;;;;;10.55;100.00;99245.84;12212737;19;20029;-85
2023/12/10 14:07:23;;;;;;;17.03;3.23;;;;;;;10.52;100.00;99235.38;12207314;19;20014;-84
2023/12/10 14:11:25;;;;;;;18.75;2.78;;;;;;;10.47;100.00;99228.72;12179626;19;20010;-85
2023/12/10 14:15:38;;;;;;;;;;;;;;;10.48;100.00;99233.13;12202494;19;20003;-85
2023/12/10 14:19:40;;;;;;;12.32;3.00;;;;;;;10.47;100.00;99220.47;12202874;19;19942;-85
2023/12/10 14:23:43;;;;;;;;;;;;;;;10.39;100.00;99234.72;12178787;19;20098;-85
2023/12/10 14:27:46;;;;;;;13.82;2.72;;;;;;;10.39;100.00;99231.97;12197286;19;19911;-86
2023/12/10 14:31:48;;;;;;;16.92;3.33;;;;;;;10.41;100.00;99210.50;12201204;19;20011;-85
2023/12/10 14:35:51;;;;;;;14.95;2.90;;;;;;;10.36;100.00;99209.63;12178408;19;20036;-84
2023/12/10 14:39:53;;;;;;;14.95;2.33;;;;;;;10.36;100.00;99195.88;12198772;19;20002;-84
2023/12/10 14:43:56;;;;;;;13.15;2.72;;;;;;;10.33;100.00;99186.19;12199419;19;20024;-84
2023/12/10 14:47:58;;;;;;;;;;;;;;;10.30;100.00;99191.41;12177112;19;20007;-83
2023/12/10 14:52:00;;;;;;;11.33;2.33;;;;;;;10.27;100.00;99184.50;12199434;19;19939;-84
2023/12/10 14:56:04;;;;;;;17.30;3.30;;;;;;;10.26;100.00;99189.19;12198043;19;20303;-85
2023/12/10 15:00:07;;;;;;;21.98;2.75;;;;;;;10.27;100.00;99181.75;12177850;19;20037;-85
2023/12/10 15:04:09;;;;;;;10.88;3.00;;;;;;;10.24;100.00;99179.50;12203423;19;20135;-85
2023/12/10 15:08:12;;;;;;;23.63;2.75;;;;;;;10.22;100.00;99176.16;12200648;19;20103;-84
2023/12/10 15:12:15;;;;;;;10.48;3.13;;;;;;;10.25;100.00;99184.72;12189197;19;20021;-86
2023/12/10 15:16:18;;;;;;;19.45;3.10;;;;;;;10.31;100.00;99179.28;12212440;19;20010;-86
2023/12/10 15:20:20;;;;;;;9.10;2.75;;;;;;;10.22;100.00;99181.66;12211940;19;20662;-84
2023/12/10 15:24:22;;;;;;;11.45;3.30;;;;;;;10.27;100.00;99166.06;12184046;19;20050;-86
2023/12/10 15:28:27;;;;;;;13.18;3.13;;;;;;;10.32;100.00;99156.16;12214239;19;20015;-85
2023/12/10 15:32:29;;;;;;;17.25;2.90;;;;;;;10.27;100.00;99156.97;12208679;19;20366;-83
2023/12/10 15:36:31;;;;;;;24.00;3.30;;;;;;;10.23;100.00;99142.00;12187567;19;20748;-86
2023/12/10 15:40:34;;;;;;;18.98;2.88;;;;;;;10.20;100.00;99150.81;12213040;19;20006;-86
2023/12/10 15:44:37;;;;;;;15.80;2.80;;;;;;;10.16;100.00;99144.19;12186015;19;20013;-86
2023/12/10 15:48:39;;;;;;;12.93;3.22;;;;;;;10.07;100.00;99141.06;12207222;19;20017;-83
2023/12/10 15:52:41;;;;;;;22.37;2.53;;;;;;;10.07;100.00;99132.81;12209477;19;20031;-85
2023/12/10 15:56:43;;;;;;;12.03;2.63;;;;;;;10.05;100.00;99129.50;12188076;19;20006;-86
2023/12/10 16:00:51;;;;;;;19.08;2.90;;;;;;;10.08;100.00;99131.72;12209329;19;20006;-84
2023/12/10 16:04:53;;;;;;;8.52;2.55;;;;;;;10.11;100.00;99124.84;12211298;19;20779;-85
2023/12/10 16:09:02;;;;;;;12.40;3.42;;;;;;;10.14;100.00;99129.84;12196999;19;20346;-86
2023/12/10 16:13:04;;;;;;;18.65;3.17;;;;;;;10.19;100.00;99127.13;12224676;19;20054;-86
2023/12/10 16:17:10;;;;;;;10.05;3.00;;;;;;;10.18;100.00;99120.81;12219687;19;20041;-84
2023/12/10 16:21:12;;;;;;;9.63;3.28;;;;;;;10.11;100.00;99119.34;12211361;19;20018;-85
2023/12/10 16:25:15;;;;;;;13.03;2.77;;;;;;;10.17;100.00;99115.53;12227582;19;20014;-85
2023/12/10 16:29:20;;;;;;;11.43;2.47;;;;;;;10.15;100.00;99104.81;12221391;19;20027;-85
2023/12/10 16:33:26;;;;;;;16.63;2.78;;;;;;;10.22;99.92;99101.81;12201826;19;20018;-85
2023/12/10 16:37:28;;;;;;;11.57;2.92;;;;;;;10.22;99.18;99110.91;12217918;19;20003;-85
2023/12/10 16:41:33;;;;;;;11.23;2.25;;;;;;;10.28;98.30;99081.50;12192432;19;20007;-85
2023/12/10 16:45:36;;;;;;;12.70;2.65;;;;;;;10.29;97.65;99074.91;12216629;19;20090;-85
2023/12/10 16:49:38;;;;;;;10.85;2.30;;;;;;;10.24;96.65;99064.66;12217958;19;20024;-85
2023/12/10 16:53:40;;;;;;;11.02;2.47;;;;;;;10.22;96.50;99030.22;12193326;19;19999;-85
2023/12/10 16:57:43;;;;;;;10.90;2.10;;;;;;;10.12;96.89;99021.94;12212540;19;20015;-85
2023/12/10 17:01:45;;;;;;;10.93;2.08;;;;;;;10.06;97.12;98998.22;12212783;19;20311;-85
2023/12/10 17:05:47;;;;;;;10.07;1.98;;;;;;;10.04;96.90;98999.28;12191037;19;20366;-84
2023/12/10 17:09:49;;;;;;;14.27;2.40;;;;;;;10.02;96.76;98998.75;12212425;19;20048;-83
2023/12/10 17:13:51;;;;;;;19.17;4.32;;;;;;;9.98;96.04;99000.34;12207809;19;20026;-85
2023/12/10 17:17:57;;;;;;;10.48;1.63;;;;;;;10.01;95.75;99005.34;12185132;19;20019;-84
2023/12/10 17:22:00;;;;;;;11.43;1.73;;;;;;;10.08;95.44;99002.34;12207711;19;20002;-84
2023/12/10 17:26:03;;;;;;;18.38;3.42;;;;;;;10.10;95.14;98978.13;12206114;19;20017;-85
2023/12/10 17:30:06;;;;;;;16.67;2.47;;;;;;;10.04;95.12;98977.28;12187277;19;20034;-84
2023/12/10 17:34:09;;;;;;;11.20;3.22;;;;;;;10.06;95.22;98971.53;12208900;19;20010;-84
2023/12/10 17:38:12;;;;;;;15.07;2.42;;;;;;;10.08;95.58;98962.97;12241336;19;20002;-83
2023/12/10 17:42:15;;;;;;;12.68;2.30;;;;;;;10.04;96.44;98955.25;12245194;19;20011;-84
2023/12/10 17:46:17;;;;;;;15.70;3.17;;;;;;;10.06;96.71;98940.41;12264442;19;20562;-83
2023/12/10 17:50:19;;;;;;;13.73;3.50;;;;;;;10.06;96.75;98951.44;12232007;19;20020;-83
2023/12/10 17:54:22;;;;;;;13.30;2.60;;;;;;;10.03;97.23;98930.75;12177171;19;20017;-84
2023/12/10 17:58:25;;;;;;;9.95;2.13;;;;;;;10.04;98.05;98930.47;12200676;19;20011;-85
2023/12/10 18:02:27;;;;;;;17.47;2.70;;;;;;;10.02;99.37;98923.59;12208978;19;20027;-84
2023/12/10 18:06:31;;;;;;;12.82;3.30;;;;;;;10.05;99.28;98912.03;12188883;19;20033;-86
2023/12/10 18:10:35;;;;;;;10.43;2.20;;;;;;;10.02;99.43;98907.94;12204277;19;20011;-86
2023/12/10 18:14:40;;;;;;;11.88;2.67;;;;;;;10.09;98.58;98895.84;12179142;19;20010;-86
2023/12/10 18:18:42;;;;;;;10.13;2.08;;;;;;;10.13;98.14;98863.91;12199366;19;20027;-84
2023/12/10 18:22:47;;;;;;;18.08;4.00;;;;;;;10.12;97.26;98845.75;12203273;19;20017;-86
2023/12/10 18:26:50;;;;;;;13.23;3.33;;;;;;;10.13;96.20;98823.44;12181515;19;20031;-85
2023/12/10 18:30:53;;;;;;;16.70;2.50;;;;;;;10.15;95.09;98806.66;12200584;19;20003;-84
2023/12/10 18:34:57;;;;;;;16.40;2.78;;;;;;;10.17;94.72;98788.78;12200288;19;20356;-83
2023/12/10 18:38:59;;;;;;;7.13;1.90;;;;;;;10.10;94.20;98774.44;12179107;19;20015;-84
2023/12/10 18:43:04;;;;;;;;;;;;;;;10.14;93.85;98763.69;12204196;19;20468;-83